首页
METAR-TAF:

METAR-TAF

机场 :

Rocky Mount-Wilson Regional Airport

Rocky Mount, 北卡罗来纳州, 美国

纬度: 35-51-18N, 经度: 077-53-35W, 海拔: 49米

当前天气观测

该预报发布于21分钟前的10:53 UTC
风速3节,风向北转东北
温度 1°C
湿度 86%
气压 1028 hPa
能見度: 16.1公里
天空无云

METAR: KRWI 221053Z AUTO 03003KT 10SM CLR 01/M01 A3035 RMK AO2 SLP278 T00111006

时间: 06:14 (11:14 UTC)

预报

该预报发布于5小时和43分钟前的05:31 UTC
预报有效从22日的 06点(UTC)到 23日的 06点(UTC)
风速5节,风向多变
能見度: 10公里
天空无云
从 22日的 1500点(UTC)
风速9节,风向北转东北,有时为16节阵风
能見度: 10公里
少量云层高于3000英尺
从 22日的 1800点(UTC)
风速7节,风向北转东北
能見度: 10公里
天空无云

TAF: KRWI 220531Z 2206/2306 VRB05KT P6SM SKC FM221500 02009G16KT P6SM FEW030 FM221800 03007KT P6SM SKC

超过4000个机场的气象观测和天气预报(METAR&TAF报告)。

可查询的气象台以黄色和红色小点在地图上表示。

将鼠标移到小点上方,可查看气象台名称。

然后点击查看天气观测和预报。

如需切换地图:点击带黑十字的绿色按钮放大地图;点击带横线的绿色按钮缩小地图;或者点击绿色箭头查看邻近地区的地图。


METAR-TAF: